sensor_id;sensor_type;location;lat;lon;timestamp;P1;durP1;ratioP1;P2;durP2;ratioP2
842;SDS011;407;48.884;9.126;2023-02-28T00:02:14;5.77;;;1.80;;
842;SDS011;407;48.884;9.126;2023-02-28T00:04:42;9.48;;;2.10;;
842;SDS011;407;48.884;9.126;2023-02-28T00:07:08;9.30;;;2.45;;
842;SDS011;407;48.884;9.126;2023-02-28T00:09:34;6.30;;;2.30;;
842;SDS011;407;48.884;9.126;2023-02-28T00:11:59;6.40;;;2.00;;
842;SDS011;407;48.884;9.126;2023-02-28T00:14:29;8.48;;;2.40;;
842;SDS011;407;48.884;9.126;2023-02-28T00:16:55;8.05;;;2.55;;
842;SDS011;407;48.884;9.126;2023-02-28T00:19:20;7.00;;;2.70;;
842;SDS011;407;48.884;9.126;2023-02-28T00:21:46;6.50;;;2.33;;
842;SDS011;407;48.884;9.126;2023-02-28T00:24:12;8.10;;;2.70;;
842;SDS011;407;48.884;9.126;2023-02-28T00:26:38;6.53;;;2.27;;
842;SDS011;407;48.884;9.126;2023-02-28T00:29:03;9.82;;;2.80;;
842;SDS011;407;48.884;9.126;2023-02-28T00:31:29;7.37;;;2.50;;
842;SDS011;407;48.884;9.126;2023-02-28T00:33:54;7.83;;;2.83;;
842;SDS011;407;48.884;9.126;2023-02-28T00:36:20;7.15;;;2.40;;
842;SDS011;407;48.884;9.126;2023-02-28T00:38:45;7.67;;;2.60;;
842;SDS011;407;48.884;9.126;2023-02-28T00:41:11;9.70;;;3.40;;
842;SDS011;407;48.884;9.126;2023-02-28T00:43:37;8.50;;;2.72;;
842;SDS011;407;48.884;9.126;2023-02-28T00:46:04;7.10;;;2.80;;
842;SDS011;407;48.884;9.126;2023-02-28T00:48:30;8.30;;;2.80;;
842;SDS011;407;48.884;9.126;2023-02-28T00:50:56;9.18;;;2.30;;
842;SDS011;407;48.884;9.126;2023-02-28T00:53:22;8.80;;;2.80;;
842;SDS011;407;48.884;9.126;2023-02-28T00:55:48;6.95;;;2.90;;
842;SDS011;407;48.884;9.126;2023-02-28T00:58:14;7.82;;;3.00;;
842;SDS011;407;48.884;9.126;2023-02-28T01:00:40;8.03;;;2.77;;
842;SDS011;407;48.884;9.126;2023-02-28T01:03:05;6.60;;;2.50;;
842;SDS011;407;48.884;9.126;2023-02-28T01:05:33;6.95;;;2.70;;
842;SDS011;407;48.884;9.126;2023-02-28T01:07:58;6.75;;;2.83;;
842;SDS011;407;48.884;9.126;2023-02-28T01:10:24;7.50;;;2.63;;
842;SDS011;407;48.884;9.126;2023-02-28T01:12:50;6.78;;;2.53;;
842;SDS011;407;48.884;9.126;2023-02-28T01:15:16;8.40;;;2.80;;
842;SDS011;407;48.884;9.126;2023-02-28T01:17:41;9.35;;;2.70;;
842;SDS011;407;48.884;9.126;2023-02-28T01:20:07;8.93;;;3.50;;
842;SDS011;407;48.884;9.126;2023-02-28T01:22:34;8.15;;;3.00;;
842;SDS011;407;48.884;9.126;2023-02-28T01:25:00;7.57;;;3.00;;
842;SDS011;407;48.884;9.126;2023-02-28T01:27:26;7.63;;;2.90;;
842;SDS011;407;48.884;9.126;2023-02-28T01:29:52;9.70;;;2.80;;
842;SDS011;407;48.884;9.126;2023-02-28T01:32:17;7.55;;;2.70;;
842;SDS011;407;48.884;9.126;2023-02-28T01:34:43;8.32;;;2.80;;
842;SDS011;407;48.884;9.126;2023-02-28T01:37:08;7.70;;;2.77;;
842;SDS011;407;48.884;9.126;2023-02-28T01:39:35;9.80;;;3.08;;
842;SDS011;407;48.884;9.126;2023-02-28T01:42:01;7.80;;;2.80;;
842;SDS011;407;48.884;9.126;2023-02-28T01:47:31;8.10;;;3.42;;
842;SDS011;407;48.884;9.126;2023-02-28T01:50:02;7.65;;;3.33;;
842;SDS011;407;48.884;9.126;2023-02-28T01:52:33;6.82;;;2.85;;
842;SDS011;407;48.884;9.126;2023-02-28T01:54:59;8.23;;;3.10;;
842;SDS011;407;48.884;9.126;2023-02-28T01:57:30;11.02;;;3.20;;
842;SDS011;407;48.884;9.126;2023-02-28T02:00:10;8.40;;;3.00;;
842;SDS011;407;48.884;9.126;2023-02-28T02:02:38;9.90;;;3.10;;
842;SDS011;407;48.884;9.126;2023-02-28T02:05:08;7.03;;;2.58;;
842;SDS011;407;48.884;9.126;2023-02-28T02:07:36;8.40;;;2.80;;
842;SDS011;407;48.884;9.126;2023-02-28T02:12:48;7.35;;;3.10;;
842;SDS011;407;48.884;9.126;2023-02-28T02:44:02;8.00;;;3.40;;
842;SDS011;407;48.884;9.126;2023-02-28T02:46:36;10.20;;;3.03;;
842;SDS011;407;48.884;9.126;2023-02-28T02:49:07;8.55;;;3.10;;
842;SDS011;407;48.884;9.126;2023-02-28T02:51:36;10.98;;;3.50;;
842;SDS011;407;48.884;9.126;2023-02-28T02:54:22;9.25;;;3.40;;
842;SDS011;407;48.884;9.126;2023-02-28T02:56:53;9.30;;;3.50;;
842;SDS011;407;48.884;9.126;2023-02-28T02:59:22;6.30;;;2.42;;
842;SDS011;407;48.884;9.126;2023-02-28T03:01:50;7.65;;;2.78;;
842;SDS011;407;48.884;9.126;2023-02-28T03:04:21;9.00;;;3.50;;
842;SDS011;407;48.884;9.126;2023-02-28T03:06:49;8.43;;;3.00;;
842;SDS011;407;48.884;9.126;2023-02-28T03:09:21;8.45;;;3.35;;
842;SDS011;407;48.884;9.126;2023-02-28T03:11:47;7.85;;;3.17;;
842;SDS011;407;48.884;9.126;2023-02-28T03:20:07;8.30;;;2.70;;
842;SDS011;407;48.884;9.126;2023-02-28T03:25:57;11.13;;;3.60;;
842;SDS011;407;48.884;9.126;2023-02-28T03:28:32;9.48;;;3.15;;
842;SDS011;407;48.884;9.126;2023-02-28T03:36:47;9.00;;;3.40;;
842;SDS011;407;48.884;9.126;2023-02-28T03:39:20;9.65;;;3.75;;
842;SDS011;407;48.884;9.126;2023-02-28T03:41:59;9.85;;;3.28;;
842;SDS011;407;48.884;9.126;2023-02-28T03:44:30;7.40;;;3.00;;
842;SDS011;407;48.884;9.126;2023-02-28T03:47:02;8.80;;;3.35;;
842;SDS011;407;48.884;9.126;2023-02-28T03:49:36;8.80;;;3.40;;
842;SDS011;407;48.884;9.126;2023-02-28T03:52:27;8.50;;;3.45;;
842;SDS011;407;48.884;9.126;2023-02-28T03:55:00;8.83;;;3.60;;
842;SDS011;407;48.884;9.126;2023-02-28T03:57:33;11.43;;;4.20;;
842;SDS011;407;48.884;9.126;2023-02-28T04:00:19;8.77;;;4.00;;
842;SDS011;407;48.884;9.126;2023-02-28T04:02:50;9.70;;;3.55;;
842;SDS011;407;48.884;9.126;2023-02-28T04:05:17;8.73;;;3.25;;
842;SDS011;407;48.884;9.126;2023-02-28T04:07:47;9.05;;;3.70;;
842;SDS011;407;48.884;9.126;2023-02-28T04:10:15;9.45;;;3.47;;
842;SDS011;407;48.884;9.126;2023-02-28T04:12:41;9.73;;;3.60;;
842;SDS011;407;48.884;9.126;2023-02-28T04:15:07;9.40;;;3.90;;
842;SDS011;407;48.884;9.126;2023-02-28T04:17:33;10.80;;;4.05;;
842;SDS011;407;48.884;9.126;2023-02-28T04:19:58;13.63;;;3.70;;
842;SDS011;407;48.884;9.126;2023-02-28T04:22:24;9.18;;;3.40;;
842;SDS011;407;48.884;9.126;2023-02-28T04:24:52;9.80;;;3.60;;
842;SDS011;407;48.884;9.126;2023-02-28T04:27:21;8.60;;;3.70;;
842;SDS011;407;48.884;9.126;2023-02-28T04:29:46;8.50;;;3.43;;
842;SDS011;407;48.884;9.126;2023-02-28T04:32:12;8.40;;;3.50;;
842;SDS011;407;48.884;9.126;2023-02-28T04:34:38;10.15;;;3.92;;
842;SDS011;407;48.884;9.126;2023-02-28T04:37:04;10.27;;;3.72;;
842;SDS011;407;48.884;9.126;2023-02-28T04:39:34;10.20;;;3.05;;
842;SDS011;407;48.884;9.126;2023-02-28T04:42:00;10.70;;;3.92;;
842;SDS011;407;48.884;9.126;2023-02-28T04:44:26;9.77;;;4.13;;
842;SDS011;407;48.884;9.126;2023-02-28T04:46:51;10.57;;;3.70;;
842;SDS011;407;48.884;9.126;2023-02-28T04:49:17;9.73;;;3.20;;
842;SDS011;407;48.884;9.126;2023-02-28T04:51:43;9.83;;;3.57;;
842;SDS011;407;48.884;9.126;2023-02-28T04:54:08;9.43;;;3.47;;
842;SDS011;407;48.884;9.126;2023-02-28T04:56:35;11.73;;;4.10;;
842;SDS011;407;48.884;9.126;2023-02-28T04:59:00;8.53;;;3.50;;
842;SDS011;407;48.884;9.126;2023-02-28T05:01:28;9.97;;;3.30;;
842;SDS011;407;48.884;9.126;2023-02-28T05:03:56;13.45;;;3.90;;
842;SDS011;407;48.884;9.126;2023-02-28T05:06:24;9.02;;;3.90;;
842;SDS011;407;48.884;9.126;2023-02-28T05:08:52;8.82;;;3.78;;
842;SDS011;407;48.884;9.126;2023-02-28T05:11:19;10.65;;;3.85;;
842;SDS011;407;48.884;9.126;2023-02-28T05:13:46;12.77;;;4.88;;
842;SDS011;407;48.884;9.126;2023-02-28T05:16:12;11.07;;;3.47;;
842;SDS011;407;48.884;9.126;2023-02-28T05:18:44;10.33;;;3.40;;
842;SDS011;407;48.884;9.126;2023-02-28T05:21:23;11.60;;;4.10;;
842;SDS011;407;48.884;9.126;2023-02-28T05:23:55;11.80;;;4.18;;
842;SDS011;407;48.884;9.126;2023-02-28T05:26:21;10.45;;;3.42;;
842;SDS011;407;48.884;9.126;2023-02-28T05:28:57;11.43;;;4.55;;
842;SDS011;407;48.884;9.126;2023-02-28T05:31:23;10.47;;;3.43;;
842;SDS011;407;48.884;9.126;2023-02-28T05:33:48;11.80;;;4.00;;
842;SDS011;407;48.884;9.126;2023-02-28T05:36:14;12.77;;;3.90;;
842;SDS011;407;48.884;9.126;2023-02-28T05:38:40;10.25;;;4.00;;
842;SDS011;407;48.884;9.126;2023-02-28T05:41:09;9.23;;;3.90;;
842;SDS011;407;48.884;9.126;2023-02-28T05:43:35;10.95;;;4.38;;
842;SDS011;407;48.884;9.126;2023-02-28T05:46:05;12.15;;;4.30;;
842;SDS011;407;48.884;9.126;2023-02-28T05:48:41;10.83;;;4.33;;
842;SDS011;407;48.884;9.126;2023-02-28T05:51:07;12.23;;;4.85;;
842;SDS011;407;48.884;9.126;2023-02-28T05:53:34;10.23;;;4.18;;
842;SDS011;407;48.884;9.126;2023-02-28T05:55:59;14.20;;;5.18;;
842;SDS011;407;48.884;9.126;2023-02-28T05:58:25;12.13;;;4.55;;
842;SDS011;407;48.884;9.126;2023-02-28T06:00:54;9.90;;;4.00;;
842;SDS011;407;48.884;9.126;2023-02-28T06:03:19;9.90;;;3.67;;
842;SDS011;407;48.884;9.126;2023-02-28T06:05:45;10.00;;;3.87;;
842;SDS011;407;48.884;9.126;2023-02-28T06:08:11;10.35;;;4.25;;
842;SDS011;407;48.884;9.126;2023-02-28T06:10:36;10.50;;;4.00;;
842;SDS011;407;48.884;9.126;2023-02-28T06:13:02;10.55;;;4.85;;
842;SDS011;407;48.884;9.126;2023-02-28T06:15:29;12.17;;;4.63;;
842;SDS011;407;48.884;9.126;2023-02-28T06:17:56;13.63;;;5.20;;
842;SDS011;407;48.884;9.126;2023-02-28T06:20:25;10.05;;;3.60;;
842;SDS011;407;48.884;9.126;2023-02-28T06:22:58;10.75;;;4.47;;
842;SDS011;407;48.884;9.126;2023-02-28T06:25:25;13.82;;;4.70;;
842;SDS011;407;48.884;9.126;2023-02-28T06:28:02;10.60;;;4.72;;
842;SDS011;407;48.884;9.126;2023-02-28T06:30:28;12.02;;;5.00;;
842;SDS011;407;48.884;9.126;2023-02-28T06:32:54;11.85;;;4.65;;
842;SDS011;407;48.884;9.126;2023-02-28T06:35:22;11.93;;;4.40;;
842;SDS011;407;48.884;9.126;2023-02-28T06:37:47;11.75;;;4.15;;
842;SDS011;407;48.884;9.126;2023-02-28T06:40:13;12.75;;;4.88;;
842;SDS011;407;48.884;9.126;2023-02-28T06:42:39;11.73;;;4.97;;
842;SDS011;407;48.884;9.126;2023-02-28T06:45:05;11.03;;;4.10;;
842;SDS011;407;48.884;9.126;2023-02-28T06:47:34;11.77;;;4.18;;
842;SDS011;407;48.884;9.126;2023-02-28T06:50:01;14.35;;;5.95;;
842;SDS011;407;48.884;9.126;2023-02-28T06:52:26;14.30;;;5.30;;
842;SDS011;407;48.884;9.126;2023-02-28T06:54:52;20.73;;;4.60;;
842;SDS011;407;48.884;9.126;2023-02-28T06:57:25;13.10;;;4.32;;
842;SDS011;407;48.884;9.126;2023-02-28T06:59:52;11.32;;;4.38;;
842;SDS011;407;48.884;9.126;2023-02-28T07:02:18;12.80;;;4.20;;
842;SDS011;407;48.884;9.126;2023-02-28T07:04:43;12.33;;;5.20;;
842;SDS011;407;48.884;9.126;2023-02-28T07:07:09;11.63;;;4.65;;
842;SDS011;407;48.884;9.126;2023-02-28T07:09:36;10.60;;;4.15;;
842;SDS011;407;48.884;9.126;2023-02-28T07:12:02;13.43;;;5.22;;
842;SDS011;407;48.884;9.126;2023-02-28T07:14:28;12.23;;;4.93;;
842;SDS011;407;48.884;9.126;2023-02-28T07:16:53;12.87;;;4.70;;
842;SDS011;407;48.884;9.126;2023-02-28T07:19:19;12.82;;;4.90;;
842;SDS011;407;48.884;9.126;2023-02-28T07:21:45;12.52;;;5.57;;
842;SDS011;407;48.884;9.126;2023-02-28T07:24:11;10.35;;;4.85;;
842;SDS011;407;48.884;9.126;2023-02-28T07:26:37;11.07;;;5.10;;
842;SDS011;407;48.884;9.126;2023-02-28T07:29:02;10.20;;;4.30;;
842;SDS011;407;48.884;9.126;2023-02-28T07:31:29;12.93;;;3.85;;
842;SDS011;407;48.884;9.126;2023-02-28T07:33:54;11.98;;;4.78;;
842;SDS011;407;48.884;9.126;2023-02-28T07:36:21;10.27;;;4.25;;
842;SDS011;407;48.884;9.126;2023-02-28T07:38:47;14.90;;;5.17;;
842;SDS011;407;48.884;9.126;2023-02-28T07:41:15;11.02;;;4.45;;
842;SDS011;407;48.884;9.126;2023-02-28T07:43:42;11.35;;;4.35;;
842;SDS011;407;48.884;9.126;2023-02-28T07:46:10;13.37;;;5.43;;
842;SDS011;407;48.884;9.126;2023-02-28T07:48:37;11.20;;;4.70;;
842;SDS011;407;48.884;9.126;2023-02-28T07:51:03;14.93;;;5.35;;
842;SDS011;407;48.884;9.126;2023-02-28T07:53:29;10.35;;;4.68;;
842;SDS011;407;48.884;9.126;2023-02-28T07:55:56;12.23;;;4.88;;
842;SDS011;407;48.884;9.126;2023-02-28T07:58:24;10.93;;;4.78;;
842;SDS011;407;48.884;9.126;2023-02-28T08:00:50;12.68;;;5.00;;
842;SDS011;407;48.884;9.126;2023-02-28T08:03:19;10.18;;;4.30;;
842;SDS011;407;48.884;9.126;2023-02-28T08:05:46;11.57;;;4.88;;
842;SDS011;407;48.884;9.126;2023-02-28T08:08:12;11.83;;;5.10;;
842;SDS011;407;48.884;9.126;2023-02-28T08:10:39;14.65;;;5.53;;
842;SDS011;407;48.884;9.126;2023-02-28T08:13:04;14.02;;;5.00;;
842;SDS011;407;48.884;9.126;2023-02-28T08:15:30;12.40;;;5.60;;
842;SDS011;407;48.884;9.126;2023-02-28T08:17:56;14.00;;;6.07;;
842;SDS011;407;48.884;9.126;2023-02-28T08:20:22;14.80;;;5.03;;
842;SDS011;407;48.884;9.126;2023-02-28T08:22:49;13.10;;;4.85;;
842;SDS011;407;48.884;9.126;2023-02-28T08:25:15;10.45;;;4.45;;
842;SDS011;407;48.884;9.126;2023-02-28T08:27:40;13.40;;;5.30;;
842;SDS011;407;48.884;9.126;2023-02-28T08:30:06;11.40;;;5.43;;
842;SDS011;407;48.884;9.126;2023-02-28T08:32:35;15.63;;;5.50;;
842;SDS011;407;48.884;9.126;2023-02-28T08:35:00;13.13;;;5.57;;
842;SDS011;407;48.884;9.126;2023-02-28T08:37:27;13.20;;;5.38;;
842;SDS011;407;48.884;9.126;2023-02-28T08:39:53;13.38;;;5.13;;
842;SDS011;407;48.884;9.126;2023-02-28T08:42:19;13.13;;;5.80;;
842;SDS011;407;48.884;9.126;2023-02-28T08:44:45;11.90;;;4.75;;
842;SDS011;407;48.884;9.126;2023-02-28T08:47:10;14.13;;;5.50;;
842;SDS011;407;48.884;9.126;2023-02-28T08:49:36;11.53;;;5.37;;
842;SDS011;407;48.884;9.126;2023-02-28T08:52:02;14.52;;;6.00;;
842;SDS011;407;48.884;9.126;2023-02-28T08:54:28;11.63;;;5.25;;
842;SDS011;407;48.884;9.126;2023-02-28T08:56:56;13.38;;;6.38;;
842;SDS011;407;48.884;9.126;2023-02-28T08:59:23;12.15;;;5.25;;
842;SDS011;407;48.884;9.126;2023-02-28T09:01:48;13.63;;;5.88;;
842;SDS011;407;48.884;9.126;2023-02-28T09:04:14;15.67;;;5.73;;
842;SDS011;407;48.884;9.126;2023-02-28T09:06:39;14.90;;;6.20;;
842;SDS011;407;48.884;9.126;2023-02-28T09:09:05;14.90;;;6.00;;
842;SDS011;407;48.884;9.126;2023-02-28T09:11:32;14.63;;;5.80;;
842;SDS011;407;48.884;9.126;2023-02-28T09:14:00;18.35;;;6.35;;
842;SDS011;407;48.884;9.126;2023-02-28T09:16:28;14.00;;;5.90;;
842;SDS011;407;48.884;9.126;2023-02-28T09:18:54;13.15;;;5.63;;
842;SDS011;407;48.884;9.126;2023-02-28T09:21:19;15.80;;;5.75;;
842;SDS011;407;48.884;9.126;2023-02-28T09:23:46;14.75;;;5.80;;
842;SDS011;407;48.884;9.126;2023-02-28T09:26:14;18.47;;;6.10;;
842;SDS011;407;48.884;9.126;2023-02-28T09:28:41;12.88;;;5.40;;
842;SDS011;407;48.884;9.126;2023-02-28T09:31:10;14.17;;;5.67;;
842;SDS011;407;48.884;9.126;2023-02-28T09:33:41;16.20;;;6.20;;
842;SDS011;407;48.884;9.126;2023-02-28T09:36:06;15.30;;;6.17;;
842;SDS011;407;48.884;9.126;2023-02-28T09:38:32;13.25;;;5.55;;
842;SDS011;407;48.884;9.126;2023-02-28T09:40:59;14.27;;;5.97;;
842;SDS011;407;48.884;9.126;2023-02-28T09:43:33;17.52;;;6.25;;
842;SDS011;407;48.884;9.126;2023-02-28T09:48:54;12.63;;;5.15;;
842;SDS011;407;48.884;9.126;2023-02-28T09:54:00;18.80;;;6.90;;
842;SDS011;407;48.884;9.126;2023-02-28T09:56:36;15.50;;;6.03;;
842;SDS011;407;48.884;9.126;2023-02-28T10:05:19;14.57;;;5.75;;
842;SDS011;407;48.884;9.126;2023-02-28T10:08:02;15.83;;;6.23;;
842;SDS011;407;48.884;9.126;2023-02-28T10:10:44;14.85;;;6.30;;
842;SDS011;407;48.884;9.126;2023-02-28T10:13:32;15.35;;;6.45;;
842;SDS011;407;48.884;9.126;2023-02-28T10:16:12;14.82;;;6.78;;
842;SDS011;407;48.884;9.126;2023-02-28T10:18:49;17.08;;;6.95;;
842;SDS011;407;48.884;9.126;2023-02-28T10:21:21;15.05;;;6.25;;
842;SDS011;407;48.884;9.126;2023-02-28T10:23:52;13.65;;;5.93;;
842;SDS011;407;48.884;9.126;2023-02-28T10:26:25;14.93;;;5.90;;
842;SDS011;407;48.884;9.126;2023-02-28T10:28:53;17.88;;;6.22;;
842;SDS011;407;48.884;9.126;2023-02-28T10:31:19;15.83;;;6.97;;
842;SDS011;407;48.884;9.126;2023-02-28T10:33:45;16.67;;;6.90;;
842;SDS011;407;48.884;9.126;2023-02-28T10:36:13;15.02;;;6.45;;
842;SDS011;407;48.884;9.126;2023-02-28T10:38:44;16.00;;;6.30;;
842;SDS011;407;48.884;9.126;2023-02-28T10:43:42;16.48;;;6.75;;
842;SDS011;407;48.884;9.126;2023-02-28T10:51:33;16.10;;;6.75;;
842;SDS011;407;48.884;9.126;2023-02-28T10:54:01;19.58;;;8.02;;
842;SDS011;407;48.884;9.126;2023-02-28T10:56:28;15.27;;;6.88;;
842;SDS011;407;48.884;9.126;2023-02-28T11:01:33;15.47;;;6.70;;
842;SDS011;407;48.884;9.126;2023-02-28T11:07:00;14.00;;;6.70;;
842;SDS011;407;48.884;9.126;2023-02-28T11:09:30;14.30;;;6.78;;
842;SDS011;407;48.884;9.126;2023-02-28T11:14:56;14.30;;;6.75;;
842;SDS011;407;48.884;9.126;2023-02-28T11:17:27;15.48;;;7.25;;
842;SDS011;407;48.884;9.126;2023-02-28T11:20:02;16.27;;;7.40;;
842;SDS011;407;48.884;9.126;2023-02-28T11:22:34;14.23;;;6.67;;
842;SDS011;407;48.884;9.126;2023-02-28T11:25:24;15.67;;;6.40;;
842;SDS011;407;48.884;9.126;2023-02-28T11:27:56;16.20;;;7.47;;
842;SDS011;407;48.884;9.126;2023-02-28T11:30:28;15.15;;;6.80;;
842;SDS011;407;48.884;9.126;2023-02-28T11:34:07;13.32;;;6.15;;
842;SDS011;407;48.884;9.126;2023-02-28T11:36:21;15.73;;;7.10;;
842;SDS011;407;48.884;9.126;2023-02-28T11:38:56;14.68;;;6.75;;
842;SDS011;407;48.884;9.126;2023-02-28T11:56:06;16.25;;;6.43;;
842;SDS011;407;48.884;9.126;2023-02-28T11:59:05;15.13;;;6.50;;
842;SDS011;407;48.884;9.126;2023-02-28T12:07:09;15.57;;;7.07;;
842;SDS011;407;48.884;9.126;2023-02-28T12:09:51;15.23;;;7.40;;
842;SDS011;407;48.884;9.126;2023-02-28T12:17:44;14.07;;;6.68;;
842;SDS011;407;48.884;9.126;2023-02-28T12:29:02;15.77;;;6.80;;
842;SDS011;407;48.884;9.126;2023-02-28T12:32:09;13.25;;;5.70;;
842;SDS011;407;48.884;9.126;2023-02-28T12:37:51;14.52;;;6.13;;
842;SDS011;407;48.884;9.126;2023-02-28T12:40:43;15.23;;;5.97;;
842;SDS011;407;48.884;9.126;2023-02-28T12:43:12;13.85;;;6.05;;
842;SDS011;407;48.884;9.126;2023-02-28T12:45:55;14.43;;;6.00;;
842;SDS011;407;48.884;9.126;2023-02-28T12:48:26;13.90;;;6.90;;
842;SDS011;407;48.884;9.126;2023-02-28T12:51:07;14.18;;;6.18;;
842;SDS011;407;48.884;9.126;2023-02-28T12:56:30;12.43;;;5.70;;
842;SDS011;407;48.884;9.126;2023-02-28T13:01:57;14.90;;;6.43;;
842;SDS011;407;48.884;9.126;2023-02-28T13:04:52;13.82;;;6.03;;
842;SDS011;407;48.884;9.126;2023-02-28T13:10:43;15.00;;;6.18;;
842;SDS011;407;48.884;9.126;2023-02-28T13:13:13;15.50;;;6.65;;
842;SDS011;407;48.884;9.126;2023-02-28T13:16:01;13.55;;;6.30;;
842;SDS011;407;48.884;9.126;2023-02-28T13:18:36;13.85;;;6.28;;
842;SDS011;407;48.884;9.126;2023-02-28T13:21:05;12.63;;;6.10;;
842;SDS011;407;48.884;9.126;2023-02-28T13:26:23;14.30;;;6.07;;
842;SDS011;407;48.884;9.126;2023-02-28T13:39:56;15.47;;;6.20;;
842;SDS011;407;48.884;9.126;2023-02-28T14:09:00;12.95;;;6.20;;
842;SDS011;407;48.884;9.126;2023-02-28T14:11:45;13.33;;;6.60;;
842;SDS011;407;48.884;9.126;2023-02-28T14:16:59;16.07;;;7.33;;
842;SDS011;407;48.884;9.126;2023-02-28T14:19:26;12.27;;;5.55;;
842;SDS011;407;48.884;9.126;2023-02-28T14:22:18;13.02;;;6.50;;
842;SDS011;407;48.884;9.126;2023-02-28T14:25:15;13.43;;;6.07;;
842;SDS011;407;48.884;9.126;2023-02-28T14:27:58;14.93;;;6.10;;
842;SDS011;407;48.884;9.126;2023-02-28T14:30:52;11.80;;;5.38;;
842;SDS011;407;48.884;9.126;2023-02-28T14:33:35;13.55;;;6.60;;
842;SDS011;407;48.884;9.126;2023-02-28T14:39:04;12.82;;;6.15;;
842;SDS011;407;48.884;9.126;2023-02-28T14:41:47;13.75;;;6.18;;
842;SDS011;407;48.884;9.126;2023-02-28T14:44:18;15.80;;;6.00;;
842;SDS011;407;48.884;9.126;2023-02-28T14:46:46;13.68;;;6.63;;
842;SDS011;407;48.884;9.126;2023-02-28T14:49:19;14.40;;;7.07;;
842;SDS011;407;48.884;9.126;2023-02-28T14:52:00;14.07;;;6.80;;
842;SDS011;407;48.884;9.126;2023-02-28T14:54:30;17.20;;;7.50;;
842;SDS011;407;48.884;9.126;2023-02-28T14:56:56;13.00;;;5.50;;
842;SDS011;407;48.884;9.126;2023-02-28T14:59:32;13.97;;;6.30;;
842;SDS011;407;48.884;9.126;2023-02-28T15:02:15;15.45;;;7.65;;
842;SDS011;407;48.884;9.126;2023-02-28T15:04:55;13.40;;;6.30;;
842;SDS011;407;48.884;9.126;2023-02-28T15:07:22;14.73;;;6.15;;
842;SDS011;407;48.884;9.126;2023-02-28T15:12:40;14.38;;;6.82;;
842;SDS011;407;48.884;9.126;2023-02-28T15:15:16;13.77;;;6.80;;
842;SDS011;407;48.884;9.126;2023-02-28T15:17:44;15.52;;;7.20;;
842;SDS011;407;48.884;9.126;2023-02-28T15:20:16;12.75;;;5.78;;
842;SDS011;407;48.884;9.126;2023-02-28T15:22:43;15.13;;;6.05;;
842;SDS011;407;48.884;9.126;2023-02-28T15:25:13;13.73;;;6.27;;
842;SDS011;407;48.884;9.126;2023-02-28T15:27:43;16.20;;;6.83;;
842;SDS011;407;48.884;9.126;2023-02-28T15:30:14;15.07;;;6.55;;
842;SDS011;407;48.884;9.126;2023-02-28T15:35:36;16.08;;;6.20;;
842;SDS011;407;48.884;9.126;2023-02-28T15:38:04;16.08;;;6.90;;
842;SDS011;407;48.884;9.126;2023-02-28T15:40:51;16.95;;;7.15;;
842;SDS011;407;48.884;9.126;2023-02-28T15:43:29;15.70;;;6.35;;
842;SDS011;407;48.884;9.126;2023-02-28T15:46:03;15.68;;;7.70;;
842;SDS011;407;48.884;9.126;2023-02-28T15:48:38;15.37;;;6.80;;
842;SDS011;407;48.884;9.126;2023-02-28T15:51:52;16.23;;;6.85;;
842;SDS011;407;48.884;9.126;2023-02-28T15:54:04;14.80;;;6.70;;
842;SDS011;407;48.884;9.126;2023-02-28T15:56:33;17.15;;;7.95;;
842;SDS011;407;48.884;9.126;2023-02-28T15:59:07;17.53;;;7.73;;
842;SDS011;407;48.884;9.126;2023-02-28T16:01:40;16.63;;;7.00;;
842;SDS011;407;48.884;9.126;2023-02-28T16:04:11;14.70;;;7.03;;
842;SDS011;407;48.884;9.126;2023-02-28T16:06:38;15.55;;;7.70;;
842;SDS011;407;48.884;9.126;2023-02-28T16:09:10;14.63;;;6.80;;
842;SDS011;407;48.884;9.126;2023-02-28T16:11:41;20.30;;;8.63;;
842;SDS011;407;48.884;9.126;2023-02-28T16:14:24;18.00;;;7.80;;
842;SDS011;407;48.884;9.126;2023-02-28T16:17:04;14.60;;;6.85;;
842;SDS011;407;48.884;9.126;2023-02-28T16:19:31;13.60;;;7.05;;
842;SDS011;407;48.884;9.126;2023-02-28T16:21:57;15.15;;;6.25;;
842;SDS011;407;48.884;9.126;2023-02-28T16:24:23;15.68;;;6.90;;
842;SDS011;407;48.884;9.126;2023-02-28T16:26:50;17.15;;;6.75;;
842;SDS011;407;48.884;9.126;2023-02-28T16:29:28;17.30;;;7.70;;
842;SDS011;407;48.884;9.126;2023-02-28T16:31:57;19.30;;;8.05;;
842;SDS011;407;48.884;9.126;2023-02-28T16:34:23;15.15;;;7.10;;
842;SDS011;407;48.884;9.126;2023-02-28T16:36:49;17.70;;;7.88;;
842;SDS011;407;48.884;9.126;2023-02-28T16:39:15;15.30;;;7.40;;
842;SDS011;407;48.884;9.126;2023-02-28T16:41:45;18.80;;;8.00;;
842;SDS011;407;48.884;9.126;2023-02-28T16:44:14;13.88;;;6.75;;
842;SDS011;407;48.884;9.126;2023-02-28T16:46:56;14.50;;;6.85;;
842;SDS011;407;48.884;9.126;2023-02-28T16:49:21;20.33;;;7.60;;
842;SDS011;407;48.884;9.126;2023-02-28T16:51:47;16.53;;;7.07;;
842;SDS011;407;48.884;9.126;2023-02-28T16:54:13;14.32;;;7.18;;
842;SDS011;407;48.884;9.126;2023-02-28T16:56:39;14.90;;;7.20;;
842;SDS011;407;48.884;9.126;2023-02-28T16:59:08;18.30;;;7.60;;
842;SDS011;407;48.884;9.126;2023-02-28T17:01:35;17.23;;;7.43;;
842;SDS011;407;48.884;9.126;2023-02-28T17:04:01;18.80;;;7.88;;
842;SDS011;407;48.884;9.126;2023-02-28T17:06:27;15.48;;;7.80;;
842;SDS011;407;48.884;9.126;2023-02-28T17:08:54;18.45;;;7.70;;
842;SDS011;407;48.884;9.126;2023-02-28T17:11:20;18.50;;;8.27;;
842;SDS011;407;48.884;9.126;2023-02-28T17:13:48;16.40;;;7.80;;
842;SDS011;407;48.884;9.126;2023-02-28T17:16:17;16.08;;;7.65;;
842;SDS011;407;48.884;9.126;2023-02-28T17:18:49;19.50;;;7.35;;
842;SDS011;407;48.884;9.126;2023-02-28T17:21:16;16.67;;;7.85;;
842;SDS011;407;48.884;9.126;2023-02-28T17:23:42;18.45;;;7.80;;
842;SDS011;407;48.884;9.126;2023-02-28T17:26:11;16.55;;;7.57;;
842;SDS011;407;48.884;9.126;2023-02-28T17:28:38;18.27;;;7.93;;
842;SDS011;407;48.884;9.126;2023-02-28T17:31:04;22.52;;;7.82;;
842;SDS011;407;48.884;9.126;2023-02-28T17:33:29;16.08;;;7.43;;
842;SDS011;407;48.884;9.126;2023-02-28T17:35:55;18.30;;;8.23;;
842;SDS011;407;48.884;9.126;2023-02-28T17:38:21;19.42;;;7.35;;
842;SDS011;407;48.884;9.126;2023-02-28T17:40:47;18.50;;;8.55;;
842;SDS011;407;48.884;9.126;2023-02-28T17:43:13;15.43;;;7.40;;
842;SDS011;407;48.884;9.126;2023-02-28T17:45:39;15.63;;;6.87;;
842;SDS011;407;48.884;9.126;2023-02-28T17:48:05;17.73;;;7.50;;
842;SDS011;407;48.884;9.126;2023-02-28T17:50:33;19.77;;;8.45;;
842;SDS011;407;48.884;9.126;2023-02-28T17:52:59;18.77;;;8.27;;
842;SDS011;407;48.884;9.126;2023-02-28T17:55:25;17.98;;;7.90;;
842;SDS011;407;48.884;9.126;2023-02-28T17:57:51;15.85;;;7.75;;
842;SDS011;407;48.884;9.126;2023-02-28T18:00:16;16.47;;;6.60;;
842;SDS011;407;48.884;9.126;2023-02-28T18:02:43;17.63;;;8.20;;
842;SDS011;407;48.884;9.126;2023-02-28T18:05:09;18.35;;;8.60;;
842;SDS011;407;48.884;9.126;2023-02-28T18:07:38;16.92;;;7.32;;
842;SDS011;407;48.884;9.126;2023-02-28T18:10:05;19.15;;;8.10;;
842;SDS011;407;48.884;9.126;2023-02-28T18:12:36;18.30;;;8.23;;
842;SDS011;407;48.884;9.126;2023-02-28T18:15:02;18.05;;;8.40;;
842;SDS011;407;48.884;9.126;2023-02-28T18:17:28;18.60;;;8.93;;
842;SDS011;407;48.884;9.126;2023-02-28T18:19:54;23.95;;;10.55;;
842;SDS011;407;48.884;9.126;2023-02-28T18:22:21;18.05;;;9.15;;
842;SDS011;407;48.884;9.126;2023-02-28T18:24:47;23.10;;;10.50;;
842;SDS011;407;48.884;9.126;2023-02-28T18:27:12;23.80;;;10.23;;
842;SDS011;407;48.884;9.126;2023-02-28T18:29:38;21.33;;;9.48;;
842;SDS011;407;48.884;9.126;2023-02-28T18:32:04;27.80;;;12.25;;
842;SDS011;407;48.884;9.126;2023-02-28T18:34:30;20.92;;;10.32;;
842;SDS011;407;48.884;9.126;2023-02-28T18:36:56;23.77;;;11.77;;
842;SDS011;407;48.884;9.126;2023-02-28T18:39:21;25.08;;;11.98;;
842;SDS011;407;48.884;9.126;2023-02-28T18:41:47;21.83;;;9.80;;
842;SDS011;407;48.884;9.126;2023-02-28T18:44:13;20.50;;;9.65;;
842;SDS011;407;48.884;9.126;2023-02-28T18:46:39;23.03;;;10.50;;